PAC9552 RJAA-RKSI
Flight info
| Callsign | PAC9552 |
|---|---|
| Flight time | 1h 56m |
| Altitude | 36000 |
| Route | N0497F360 TETRA8 ENPAR Y16 SAPRA Y685 GUKDO/N0429F180 GUKDO2H |
| Aircraft | B748/H-SADE1E2E3FGHIJ1J2J3J4J5J7M1M3P2RWXYZ/LB1D1G1 |
Departure
| Time | 2026-05-05 13:10 |
|---|---|
| Airport | Narita International Airport (RJAA) |
Arrival
| Time | 2026-05-05 15:06 |
|---|---|
| Airport | Incheon International Airport (RKSI) |
| Time | Latitude | Longitude | Altitude | Speed | Heading |
|---|---|---|---|---|---|
| 2026-05-05 11:04 | 35.77220 | 140.37510 | 148 ft | 0 kts | 60° |
| 2026-05-05 13:00 | 35.77194 | 140.37463 | 148 ft | 4 kts | 56° |
| 2026-05-05 13:00 | 35.77183 | 140.37439 | 148 ft | 4 kts | 82° |
| 2026-05-05 13:01 | 35.77214 | 140.37377 | 148 ft | 3 kts | 150° |
| 2026-05-05 13:01 | 35.77217 | 140.37375 | 148 ft | 0 kts | 149° |
| 2026-05-05 13:04 | 35.77208 | 140.37381 | 148 ft | 6 kts | 149° |
| 2026-05-05 13:04 | 35.77175 | 140.37405 | 148 ft | 5 kts | 149° |
| 2026-05-05 13:04 | 35.77134 | 140.37435 | 148 ft | 8 kts | 149° |
| 2026-05-05 13:05 | 35.77088 | 140.37451 | 148 ft | 7 kts | 203° |
| 2026-05-05 13:05 | 35.77063 | 140.37404 | 148 ft | 7 kts | 272° |
| 2026-05-05 13:05 | 35.77083 | 140.37345 | 148 ft | 9 kts | 315° |
| 2026-05-05 13:05 | 35.77157 | 140.37291 | 148 ft | 13 kts | 332° |
| 2026-05-05 13:06 | 35.77234 | 140.37237 | 148 ft | 12 kts | 329° |
| 2026-05-05 13:06 | 35.77332 | 140.37164 | 148 ft | 17 kts | 329° |
| 2026-05-05 13:06 | 35.77433 | 140.37089 | 148 ft | 15 kts | 331° |
| 2026-05-05 13:06 | 35.77497 | 140.37030 | 148 ft | 5 kts | 296° |
| 2026-05-05 13:07 | 35.77499 | 140.37004 | 148 ft | 0 kts | 246° |
| 2026-05-05 13:08 | 35.77490 | 140.36978 | 148 ft | 9 kts | 246° |
| 2026-05-05 13:08 | 35.77460 | 140.36910 | 148 ft | 9 kts | 239° |
| 2026-05-05 13:08 | 35.77438 | 140.36868 | 148 ft | 9 kts | 228° |
| 2026-05-05 13:09 | 35.77387 | 140.36870 | 148 ft | 6 kts | 155° |
| 2026-05-05 13:09 | 35.77381 | 140.36875 | 148 ft | 0 kts | 149° |
| 2026-05-05 13:09 | 35.77368 | 140.36884 | 148 ft | 15 kts | 149° |
| 2026-05-05 13:09 | 35.77203 | 140.37000 | 149 ft | 68 kts | 149° |
| 2026-05-05 13:10 | 35.76560 | 140.37465 | 149 ft | 146 kts | 150° |
| 2026-05-05 13:10 | 35.75493 | 140.38234 | 300 ft | 195 kts | 149° |
| 2026-05-05 13:10 | 35.74402 | 140.39023 | 1498 ft | 181 kts | 149° |
| 2026-05-05 13:10 | 35.73326 | 140.39803 | 2441 ft | 176 kts | 150° |
| 2026-05-05 13:11 | 35.72343 | 140.40515 | 2996 ft | 179 kts | 151° |
| 2026-05-05 13:11 | 35.71251 | 140.41303 | 3528 ft | 186 kts | 152° |
| 2026-05-05 13:11 | 35.70125 | 140.42117 | 4051 ft | 189 kts | 152° |
| 2026-05-05 13:11 | 35.68978 | 140.42942 | 4598 ft | 194 kts | 152° |
| 2026-05-05 13:12 | 35.67797 | 140.43793 | 5126 ft | 199 kts | 152° |
| 2026-05-05 13:12 | 35.66597 | 140.44657 | 5664 ft | 202 kts | 152° |
| 2026-05-05 13:12 | 35.65365 | 140.45544 | 6137 ft | 207 kts | 152° |
| 2026-05-05 13:12 | 35.64587 | 140.46103 | 6430 ft | 210 kts | 152° |
| 2026-05-05 13:13 | 35.63282 | 140.47042 | 6697 ft | 227 kts | 152° |
| 2026-05-05 13:13 | 35.61888 | 140.48044 | 7090 ft | 236 kts | 151° |
| 2026-05-05 13:13 | 35.60457 | 140.49072 | 7618 ft | 240 kts | 151° |
| 2026-05-05 13:13 | 35.58995 | 140.50123 | 8116 ft | 246 kts | 151° |
| 2026-05-05 13:14 | 35.57462 | 140.51011 | 8597 ft | 249 kts | 168° |
| 2026-05-05 13:14 | 35.55745 | 140.50970 | 9056 ft | 250 kts | 196° |
| 2026-05-05 13:14 | 35.54264 | 140.49893 | 9564 ft | 249 kts | 224° |
| 2026-05-05 13:14 | 35.53398 | 140.48075 | 10085 ft | 250 kts | 252° |
| 2026-05-05 13:15 | 35.53348 | 140.45966 | 10572 ft | 251 kts | 280° |
| 2026-05-05 13:15 | 35.54134 | 140.44060 | 11060 ft | 254 kts | 307° |
| 2026-05-05 13:15 | 35.55459 | 140.42605 | 11511 ft | 262 kts | 322° |
| 2026-05-05 13:15 | 35.57061 | 140.41371 | 11660 ft | 281 kts | 325° |
| 2026-05-05 13:16 | 35.58767 | 140.40106 | 12099 ft | 288 kts | 327° |
| 2026-05-05 13:16 | 35.60516 | 140.38845 | 12628 ft | 294 kts | 327° |
| 2026-05-05 13:16 | 35.62288 | 140.37565 | 13143 ft | 297 kts | 327° |
| 2026-05-05 13:16 | 35.64077 | 140.36267 | 13627 ft | 301 kts | 327° |
| 2026-05-05 13:17 | 35.65888 | 140.34949 | 14136 ft | 303 kts | 327° |
| 2026-05-05 13:17 | 35.67711 | 140.33620 | 14623 ft | 307 kts | 326° |
| 2026-05-05 13:17 | 35.69371 | 140.31920 | 14850 ft | 318 kts | 309° |
| 2026-05-05 13:17 | 35.70649 | 140.29621 | 14982 ft | 335 kts | 297° |
| 2026-05-05 13:18 | 35.71776 | 140.27003 | 15114 ft | 356 kts | 296° |
| 2026-05-05 13:18 | 35.72957 | 140.24203 | 15262 ft | 379 kts | 296° |
| 2026-05-05 13:18 | 35.74193 | 140.21240 | 15435 ft | 400 kts | 296° |
| 2026-05-05 13:18 | 35.75472 | 140.18155 | 16024 ft | 409 kts | 295° |
| 2026-05-05 13:19 | 35.76757 | 140.15041 | 16668 ft | 416 kts | 295° |
| 2026-05-05 13:19 | 35.78078 | 140.11836 | 17342 ft | 422 kts | 295° |
| 2026-05-05 13:19 | 35.79417 | 140.08586 | 18080 ft | 427 kts | 295° |
| 2026-05-05 13:19 | 35.80764 | 140.05315 | 18866 ft | 429 kts | 295° |
| 2026-05-05 13:20 | 35.82115 | 140.02036 | 19665 ft | 431 kts | 295° |
| 2026-05-05 13:20 | 35.83367 | 139.98663 | 20357 ft | 434 kts | 290° |
| 2026-05-05 13:20 | 35.84320 | 139.95131 | 21084 ft | 435 kts | 284° |
| 2026-05-05 13:20 | 35.85088 | 139.91463 | 21839 ft | 436 kts | 282° |
| 2026-05-05 13:21 | 35.85802 | 139.87913 | 22499 ft | 440 kts | 283° |
| 2026-05-05 13:21 | 35.86582 | 139.84248 | 23180 ft | 442 kts | 283° |
| 2026-05-05 13:21 | 35.87376 | 139.80573 | 23858 ft | 445 kts | 283° |
| 2026-05-05 13:21 | 35.88079 | 139.76862 | 24571 ft | 444 kts | 276° |
| 2026-05-05 13:22 | 35.88293 | 139.73115 | 25415 ft | 439 kts | 272° |
| 2026-05-05 13:22 | 35.88438 | 139.69330 | 26239 ft | 436 kts | 271° |
| 2026-05-05 13:22 | 35.88556 | 139.65615 | 27011 ft | 432 kts | 271° |
| 2026-05-05 13:22 | 35.88679 | 139.61920 | 27797 ft | 428 kts | 271° |
| 2026-05-05 13:23 | 35.88781 | 139.58306 | 28817 ft | 416 kts | 270° |
| 2026-05-05 13:23 | 35.88895 | 139.54760 | 29516 ft | 413 kts | 270° |
| 2026-05-05 13:23 | 35.89011 | 139.51216 | 30052 ft | 411 kts | 270° |
| 2026-05-05 13:23 | 35.89115 | 139.47698 | 30671 ft | 407 kts | 270° |
| 2026-05-05 13:24 | 35.89230 | 139.44235 | 31276 ft | 403 kts | 270° |
| 2026-05-05 13:24 | 35.89339 | 139.40784 | 31647 ft | 403 kts | 269° |
| 2026-05-05 13:24 | 35.89435 | 139.37333 | 32014 ft | 401 kts | 269° |
| 2026-05-05 13:24 | 35.89535 | 139.33919 | 32431 ft | 399 kts | 268° |
| 2026-05-05 13:25 | 35.89636 | 139.30528 | 32601 ft | 402 kts | 268° |
| 2026-05-05 13:25 | 35.89742 | 139.27064 | 32699 ft | 406 kts | 268° |
| 2026-05-05 13:25 | 35.89865 | 139.23579 | 32927 ft | 406 kts | 268° |
| 2026-05-05 13:25 | 35.89976 | 139.20109 | 33320 ft | 403 kts | 268° |
| 2026-05-05 13:26 | 35.90074 | 139.16663 | 33770 ft | 399 kts | 268° |
| 2026-05-05 13:26 | 35.90167 | 139.13253 | 34018 ft | 398 kts | 267° |
| 2026-05-05 13:26 | 35.90258 | 139.09830 | 34240 ft | 398 kts | 267° |
| 2026-05-05 13:26 | 35.90348 | 139.06421 | 34490 ft | 398 kts | 267° |
| 2026-05-05 13:27 | 35.90436 | 139.03009 | 34683 ft | 398 kts | 267° |
| 2026-05-05 13:27 | 35.90524 | 138.99593 | 34864 ft | 398 kts | 267° |
| 2026-05-05 13:27 | 35.90613 | 138.96171 | 35035 ft | 398 kts | 267° |
| 2026-05-05 13:27 | 35.90700 | 138.92803 | 35237 ft | 398 kts | 267° |
| 2026-05-05 13:28 | 35.90789 | 138.89387 | 35415 ft | 398 kts | 267° |
| 2026-05-05 13:28 | 35.90880 | 138.85975 | 35557 ft | 398 kts | 267° |
| 2026-05-05 13:28 | 35.90971 | 138.82559 | 35733 ft | 398 kts | 267° |
| 2026-05-05 13:28 | 35.91048 | 138.79159 | 35948 ft | 396 kts | 266° |
| 2026-05-05 13:29 | 35.91126 | 138.75777 | 36213 ft | 393 kts | 267° |
| 2026-05-05 13:29 | 35.91197 | 138.72403 | 36326 ft | 394 kts | 267° |
| 2026-05-05 13:29 | 35.91337 | 138.65574 | 36314 ft | 400 kts | 266° |
| 2026-05-05 13:30 | 35.91480 | 138.58711 | 36285 ft | 401 kts | 266° |
| 2026-05-05 13:30 | 35.91639 | 138.51861 | 36322 ft | 398 kts | 267° |
| 2026-05-05 13:31 | 35.91783 | 138.45007 | 36310 ft | 400 kts | 266° |
| 2026-05-05 13:31 | 35.91908 | 138.38171 | 36316 ft | 400 kts | 267° |
| 2026-05-05 13:32 | 35.92033 | 138.31319 | 36271 ft | 398 kts | 266° |
| 2026-05-05 13:32 | 35.92152 | 138.24451 | 36280 ft | 402 kts | 266° |
| 2026-05-05 13:33 | 35.92272 | 138.17558 | 36228 ft | 400 kts | 266° |
| 2026-05-05 13:33 | 35.92385 | 138.10699 | 36238 ft | 400 kts | 266° |
| 2026-05-05 13:34 | 35.92521 | 138.03827 | 36258 ft | 401 kts | 267° |
| 2026-05-05 13:34 | 35.92651 | 137.96944 | 36234 ft | 403 kts | 266° |
| 2026-05-05 13:35 | 35.92754 | 137.90012 | 36209 ft | 404 kts | 266° |
| 2026-05-05 13:35 | 35.92847 | 137.83150 | 36237 ft | 401 kts | 266° |
| 2026-05-05 13:36 | 35.92945 | 137.76306 | 36222 ft | 399 kts | 266° |
| 2026-05-05 13:36 | 35.93028 | 137.69394 | 36198 ft | 404 kts | 266° |
| 2026-05-05 13:37 | 35.93127 | 137.62526 | 36191 ft | 400 kts | 266° |
| 2026-05-05 13:37 | 35.93210 | 137.55653 | 36200 ft | 401 kts | 266° |
| 2026-05-05 13:38 | 35.93290 | 137.48760 | 36185 ft | 401 kts | 266° |
| 2026-05-05 13:38 | 35.93367 | 137.42184 | 36186 ft | 403 kts | 266° |
| 2026-05-05 13:39 | 35.93433 | 137.35309 | 36179 ft | 402 kts | 266° |
| 2026-05-05 13:39 | 35.93492 | 137.28423 | 36202 ft | 401 kts | 266° |
| 2026-05-05 13:40 | 35.93551 | 137.21602 | 36206 ft | 401 kts | 265° |
| 2026-05-05 13:40 | 35.93601 | 137.14651 | 36213 ft | 402 kts | 266° |
| 2026-05-05 13:41 | 35.93655 | 137.07841 | 36162 ft | 400 kts | 265° |
| 2026-05-05 13:41 | 35.93737 | 137.00980 | 36163 ft | 402 kts | 266° |
| 2026-05-05 13:42 | 35.93809 | 136.94069 | 36178 ft | 406 kts | 266° |
| 2026-05-05 13:42 | 35.93866 | 136.87161 | 36164 ft | 403 kts | 265° |
| 2026-05-05 13:43 | 35.93912 | 136.80241 | 36161 ft | 407 kts | 265° |
| 2026-05-05 13:43 | 35.93986 | 136.73323 | 36149 ft | 402 kts | 265° |
| 2026-05-05 13:44 | 35.94023 | 136.66410 | 36171 ft | 406 kts | 265° |
| 2026-05-05 13:44 | 35.94051 | 136.59468 | 36182 ft | 400 kts | 265° |
| 2026-05-05 13:45 | 35.94070 | 136.52582 | 36174 ft | 400 kts | 265° |
| 2026-05-05 13:45 | 35.94085 | 136.45679 | 36186 ft | 403 kts | 265° |
| 2026-05-05 13:46 | 35.94102 | 136.38745 | 36180 ft | 403 kts | 265° |
| 2026-05-05 13:46 | 35.94110 | 136.31854 | 36224 ft | 405 kts | 265° |
| 2026-05-05 13:47 | 35.94111 | 136.24898 | 36219 ft | 404 kts | 265° |
| 2026-05-05 13:47 | 35.94111 | 136.17988 | 36163 ft | 403 kts | 265° |
| 2026-05-05 13:48 | 35.94107 | 136.11056 | 36173 ft | 404 kts | 265° |
| 2026-05-05 13:48 | 35.94094 | 136.04120 | 36211 ft | 404 kts | 265° |
| 2026-05-05 13:49 | 35.94075 | 135.97190 | 36206 ft | 405 kts | 265° |
| 2026-05-05 13:49 | 35.94102 | 135.90244 | 36225 ft | 404 kts | 265° |
| 2026-05-05 13:50 | 35.94113 | 135.83310 | 36204 ft | 404 kts | 265° |
| 2026-05-05 13:50 | 35.94107 | 135.76368 | 36200 ft | 404 kts | 265° |
| 2026-05-05 13:51 | 35.94095 | 135.70601 | 36197 ft | 404 kts | 265° |
| 2026-05-05 13:51 | 35.94071 | 135.62527 | 36199 ft | 405 kts | 265° |
| 2026-05-05 13:52 | 35.94050 | 135.56754 | 36200 ft | 405 kts | 265° |
| 2026-05-05 13:52 | 35.94020 | 135.49789 | 36186 ft | 406 kts | 265° |
| 2026-05-05 13:53 | 35.93987 | 135.42823 | 36187 ft | 406 kts | 265° |
| 2026-05-05 13:53 | 35.93949 | 135.35850 | 36187 ft | 407 kts | 265° |
| 2026-05-05 13:54 | 35.93907 | 135.28863 | 36186 ft | 408 kts | 265° |
| 2026-05-05 13:54 | 35.93861 | 135.21859 | 36185 ft | 409 kts | 265° |
| 2026-05-05 13:55 | 35.93824 | 135.14824 | 36186 ft | 410 kts | 265° |
| 2026-05-05 13:55 | 35.93791 | 135.07817 | 36185 ft | 411 kts | 265° |
| 2026-05-05 13:56 | 35.93726 | 135.00689 | 36184 ft | 413 kts | 265° |
| 2026-05-05 13:56 | 35.93653 | 134.93731 | 36182 ft | 414 kts | 265° |
| 2026-05-05 13:57 | 35.93576 | 134.86614 | 36182 ft | 415 kts | 265° |
| 2026-05-05 13:57 | 35.93498 | 134.79473 | 36181 ft | 416 kts | 265° |
| 2026-05-05 13:58 | 35.93417 | 134.72309 | 36180 ft | 418 kts | 265° |
| 2026-05-05 13:58 | 35.93327 | 134.65136 | 36179 ft | 419 kts | 265° |
| 2026-05-05 13:59 | 35.93181 | 134.54322 | 36177 ft | 420 kts | 265° |
| 2026-05-05 14:00 | 35.93027 | 134.43520 | 36176 ft | 422 kts | 265° |
| 2026-05-05 14:00 | 35.92920 | 134.36259 | 36175 ft | 423 kts | 265° |
| 2026-05-05 14:01 | 35.92871 | 134.28981 | 36175 ft | 424 kts | 265° |
| 2026-05-05 14:01 | 35.92786 | 134.21732 | 36174 ft | 425 kts | 265° |
| 2026-05-05 14:02 | 35.92667 | 134.14449 | 36172 ft | 425 kts | 265° |
| 2026-05-05 14:02 | 35.92539 | 134.07150 | 36171 ft | 426 kts | 265° |
| 2026-05-05 14:03 | 35.92409 | 133.99845 | 36170 ft | 426 kts | 265° |
| 2026-05-05 14:03 | 35.92278 | 133.92537 | 36170 ft | 426 kts | 265° |
| 2026-05-05 14:04 | 35.92140 | 133.85236 | 36171 ft | 426 kts | 265° |
| 2026-05-05 14:04 | 35.91991 | 133.77932 | 36171 ft | 426 kts | 265° |
| 2026-05-05 14:05 | 35.91836 | 133.70632 | 36171 ft | 426 kts | 265° |
| 2026-05-05 14:05 | 35.91675 | 133.63333 | 36170 ft | 426 kts | 265° |
| 2026-05-05 14:06 | 35.91510 | 133.56028 | 36170 ft | 426 kts | 264° |
| 2026-05-05 14:06 | 35.91362 | 133.48775 | 36171 ft | 426 kts | 265° |
| 2026-05-05 14:07 | 35.91240 | 133.41477 | 36171 ft | 425 kts | 265° |
| 2026-05-05 14:07 | 35.91093 | 133.34175 | 36171 ft | 426 kts | 264° |
| 2026-05-05 14:08 | 35.90934 | 133.26866 | 36168 ft | 426 kts | 264° |
| 2026-05-05 14:08 | 35.90765 | 133.19538 | 36171 ft | 428 kts | 264° |
| 2026-05-05 14:09 | 35.90590 | 133.12200 | 36171 ft | 428 kts | 264° |
| 2026-05-05 14:09 | 35.90410 | 133.04864 | 36170 ft | 429 kts | 264° |
| 2026-05-05 14:10 | 35.90225 | 132.97509 | 36170 ft | 429 kts | 264° |
| 2026-05-05 14:10 | 35.90035 | 132.90143 | 36171 ft | 430 kts | 264° |
| 2026-05-05 14:11 | 35.89841 | 132.82800 | 36172 ft | 431 kts | 264° |
| 2026-05-05 14:11 | 35.89640 | 132.75393 | 36174 ft | 432 kts | 264° |
| 2026-05-05 14:12 | 35.89435 | 132.67978 | 36173 ft | 433 kts | 264° |
| 2026-05-05 14:12 | 35.89225 | 132.60532 | 36173 ft | 435 kts | 264° |
| 2026-05-05 14:13 | 35.89010 | 132.53056 | 36173 ft | 436 kts | 264° |
| 2026-05-05 14:13 | 35.88788 | 132.45572 | 36173 ft | 437 kts | 264° |
| 2026-05-05 14:14 | 35.88562 | 132.38070 | 36174 ft | 438 kts | 264° |
| 2026-05-05 14:14 | 35.88332 | 132.30596 | 36175 ft | 439 kts | 264° |
| 2026-05-05 14:15 | 35.88096 | 132.23068 | 36175 ft | 440 kts | 264° |
| 2026-05-05 14:15 | 35.87855 | 132.15526 | 36169 ft | 440 kts | 264° |
| 2026-05-05 14:16 | 35.87609 | 132.07977 | 36168 ft | 440 kts | 264° |
| 2026-05-05 14:16 | 35.87357 | 132.00431 | 36167 ft | 441 kts | 264° |
| 2026-05-05 14:17 | 35.87102 | 131.92888 | 36167 ft | 440 kts | 264° |
| 2026-05-05 14:17 | 35.86842 | 131.85346 | 36166 ft | 440 kts | 264° |
| 2026-05-05 14:18 | 35.86578 | 131.77843 | 36166 ft | 440 kts | 264° |
| 2026-05-05 14:18 | 35.86350 | 131.71458 | 36165 ft | 440 kts | 264° |
| 2026-05-05 14:19 | 35.86077 | 131.63929 | 36164 ft | 440 kts | 264° |
| 2026-05-05 14:19 | 35.85798 | 131.56376 | 36162 ft | 441 kts | 264° |
| 2026-05-05 14:20 | 35.85515 | 131.48832 | 36162 ft | 440 kts | 264° |
| 2026-05-05 14:20 | 35.85227 | 131.41290 | 36161 ft | 440 kts | 264° |
| 2026-05-05 14:21 | 35.84935 | 131.33750 | 36159 ft | 440 kts | 264° |
| 2026-05-05 14:21 | 35.84638 | 131.26215 | 36159 ft | 440 kts | 264° |
| 2026-05-05 14:22 | 35.84336 | 131.18671 | 36160 ft | 441 kts | 264° |
| 2026-05-05 14:22 | 35.84036 | 131.11126 | 36155 ft | 442 kts | 264° |
| 2026-05-05 14:23 | 35.83750 | 131.03545 | 36156 ft | 443 kts | 264° |
| 2026-05-05 14:23 | 35.83426 | 130.95950 | 36154 ft | 443 kts | 264° |
| 2026-05-05 14:24 | 35.83415 | 130.88401 | 36168 ft | 448 kts | 276° |
| 2026-05-05 14:24 | 35.84332 | 130.84709 | 36157 ft | 454 kts | 288° |
| 2026-05-05 14:24 | 35.85607 | 130.81135 | 36141 ft | 458 kts | 288° |
| 2026-05-05 14:25 | 35.88279 | 130.73923 | 36152 ft | 465 kts | 289° |
| 2026-05-05 14:25 | 35.90969 | 130.66665 | 36144 ft | 467 kts | 289° |
| 2026-05-05 14:26 | 35.93672 | 130.59350 | 36136 ft | 467 kts | 289° |
| 2026-05-05 14:26 | 35.96369 | 130.52031 | 36134 ft | 469 kts | 289° |
| 2026-05-05 14:27 | 35.99050 | 130.44738 | 36133 ft | 469 kts | 289° |
| 2026-05-05 14:27 | 36.01749 | 130.37378 | 36131 ft | 473 kts | 289° |
| 2026-05-05 14:28 | 36.04476 | 130.29980 | 36141 ft | 473 kts | 290° |
| 2026-05-05 14:28 | 36.07216 | 130.22524 | 36150 ft | 473 kts | 289° |
| 2026-05-05 14:29 | 36.09894 | 130.15147 | 36149 ft | 473 kts | 289° |
| 2026-05-05 14:29 | 36.12580 | 130.07722 | 36170 ft | 473 kts | 289° |
| 2026-05-05 14:30 | 36.15259 | 130.00313 | 36179 ft | 473 kts | 289° |
| 2026-05-05 14:30 | 36.17993 | 129.92856 | 36128 ft | 474 kts | 290° |
| 2026-05-05 14:31 | 36.20834 | 129.85490 | 36125 ft | 475 kts | 290° |
| 2026-05-05 14:31 | 36.23639 | 129.78080 | 36124 ft | 475 kts | 290° |
| 2026-05-05 14:32 | 36.26432 | 129.70670 | 36124 ft | 475 kts | 290° |
| 2026-05-05 14:32 | 36.29215 | 129.63280 | 36123 ft | 475 kts | 290° |
| 2026-05-05 14:33 | 36.32004 | 129.55853 | 36123 ft | 476 kts | 290° |
| 2026-05-05 14:33 | 36.34793 | 129.48396 | 36122 ft | 477 kts | 290° |
| 2026-05-05 14:34 | 36.37583 | 129.40917 | 36118 ft | 481 kts | 290° |
| 2026-05-05 14:34 | 36.40386 | 129.33399 | 36121 ft | 479 kts | 291° |
| 2026-05-05 14:35 | 36.43234 | 129.25930 | 36104 ft | 479 kts | 291° |
| 2026-05-05 14:35 | 36.46034 | 129.18409 | 36101 ft | 479 kts | 291° |
| 2026-05-05 14:36 | 36.48820 | 129.10869 | 36100 ft | 480 kts | 291° |
| 2026-05-05 14:36 | 36.51601 | 129.03324 | 36101 ft | 480 kts | 291° |
| 2026-05-05 14:37 | 36.53920 | 128.97036 | 36099 ft | 480 kts | 291° |
| 2026-05-05 14:37 | 36.56702 | 128.89473 | 36101 ft | 481 kts | 291° |
| 2026-05-05 14:38 | 36.59927 | 128.80664 | 36119 ft | 482 kts | 291° |
| 2026-05-05 14:38 | 36.62205 | 128.74470 | 36121 ft | 482 kts | 291° |
| 2026-05-05 14:39 | 36.65021 | 128.66887 | 35763 ft | 483 kts | 291° |
| 2026-05-05 14:39 | 36.66415 | 128.63065 | 35177 ft | 485 kts | 291° |
| 2026-05-05 14:39 | 36.67793 | 128.59272 | 34481 ft | 487 kts | 291° |
| 2026-05-05 14:40 | 36.69177 | 128.55455 | 33769 ft | 489 kts | 291° |
| 2026-05-05 14:40 | 36.70592 | 128.51550 | 33036 ft | 491 kts | 291° |
| 2026-05-05 14:40 | 36.72000 | 128.47658 | 32288 ft | 494 kts | 292° |
| 2026-05-05 14:40 | 36.73419 | 128.43739 | 31525 ft | 498 kts | 292° |
| 2026-05-05 14:41 | 36.74846 | 128.39793 | 30751 ft | 501 kts | 292° |
| 2026-05-05 14:41 | 36.76287 | 128.35834 | 29960 ft | 503 kts | 292° |
| 2026-05-05 14:41 | 36.77727 | 128.31849 | 29264 ft | 504 kts | 292° |
| 2026-05-05 14:41 | 36.79160 | 128.27866 | 28618 ft | 500 kts | 292° |
| 2026-05-05 14:42 | 36.80583 | 128.23919 | 27988 ft | 496 kts | 292° |
| 2026-05-05 14:42 | 36.81992 | 128.20004 | 27364 ft | 493 kts | 293° |
| 2026-05-05 14:42 | 36.83401 | 128.16120 | 26708 ft | 489 kts | 293° |
| 2026-05-05 14:42 | 36.84785 | 128.12262 | 26052 ft | 486 kts | 293° |
| 2026-05-05 14:43 | 36.86161 | 128.08415 | 25417 ft | 482 kts | 293° |
| 2026-05-05 14:43 | 36.87500 | 128.04664 | 24796 ft | 478 kts | 293° |
| 2026-05-05 14:43 | 36.88850 | 128.00890 | 24178 ft | 475 kts | 293° |
| 2026-05-05 14:43 | 36.90191 | 127.97127 | 23556 ft | 472 kts | 293° |
| 2026-05-05 14:44 | 36.91539 | 127.93409 | 22944 ft | 469 kts | 294° |
| 2026-05-05 14:44 | 36.92866 | 127.89711 | 22332 ft | 465 kts | 293° |
| 2026-05-05 14:44 | 36.94175 | 127.86031 | 21731 ft | 461 kts | 293° |
| 2026-05-05 14:44 | 36.95466 | 127.82387 | 21136 ft | 457 kts | 293° |
| 2026-05-05 14:45 | 36.96747 | 127.78765 | 20543 ft | 454 kts | 293° |
| 2026-05-05 14:45 | 36.98017 | 127.75172 | 19954 ft | 450 kts | 293° |
| 2026-05-05 14:45 | 36.99278 | 127.71599 | 19368 ft | 447 kts | 293° |
| 2026-05-05 14:45 | 37.00530 | 127.68052 | 18788 ft | 444 kts | 293° |
| 2026-05-05 14:46 | 37.01836 | 127.64570 | 18468 ft | 441 kts | 297° |
| 2026-05-05 14:46 | 37.03399 | 127.61269 | 18299 ft | 440 kts | 302° |
| 2026-05-05 14:46 | 37.05131 | 127.58135 | 17817 ft | 437 kts | 305° |
| 2026-05-05 14:46 | 37.06919 | 127.55072 | 17463 ft | 435 kts | 305° |
| 2026-05-05 14:47 | 37.08677 | 127.51976 | 17254 ft | 436 kts | 304° |
| 2026-05-05 14:47 | 37.10407 | 127.48868 | 17045 ft | 434 kts | 304° |
| 2026-05-05 14:47 | 37.12137 | 127.45760 | 16832 ft | 434 kts | 304° |
| 2026-05-05 14:47 | 37.13269 | 127.43718 | 16694 ft | 433 kts | 304° |
| 2026-05-05 14:48 | 37.14925 | 127.40739 | 16638 ft | 432 kts | 304° |
| 2026-05-05 14:48 | 37.16630 | 127.37665 | 16630 ft | 432 kts | 304° |
| 2026-05-05 14:48 | 37.18348 | 127.34562 | 16642 ft | 432 kts | 304° |
| 2026-05-05 14:48 | 37.19925 | 127.31710 | 16449 ft | 423 kts | 304° |
| 2026-05-05 14:49 | 37.21459 | 127.28934 | 15944 ft | 419 kts | 304° |
| 2026-05-05 14:49 | 37.23095 | 127.25979 | 15787 ft | 404 kts | 304° |
| 2026-05-05 14:49 | 37.24695 | 127.23144 | 15713 ft | 389 kts | 304° |
| 2026-05-05 14:49 | 37.26223 | 127.20409 | 15631 ft | 375 kts | 304° |
| 2026-05-05 14:50 | 37.27668 | 127.17800 | 15556 ft | 361 kts | 304° |
| 2026-05-05 14:50 | 37.29074 | 127.15251 | 15480 ft | 348 kts | 304° |
| 2026-05-05 14:50 | 37.30423 | 127.12797 | 15408 ft | 335 kts | 304° |
| 2026-05-05 14:50 | 37.31740 | 127.10399 | 15338 ft | 323 kts | 304° |
| 2026-05-05 14:51 | 37.32994 | 127.08114 | 15267 ft | 311 kts | 304° |
| 2026-05-05 14:51 | 37.34205 | 127.05905 | 15090 ft | 303 kts | 304° |
| 2026-05-05 14:51 | 37.35379 | 127.03762 | 14715 ft | 304 kts | 304° |
| 2026-05-05 14:51 | 37.36351 | 127.01365 | 14049 ft | 315 kts | 285° |
| 2026-05-05 14:52 | 37.36668 | 126.98525 | 13603 ft | 337 kts | 274° |
| 2026-05-05 14:52 | 37.36779 | 126.95564 | 13229 ft | 341 kts | 271° |
| 2026-05-05 14:52 | 37.36853 | 126.92585 | 12856 ft | 341 kts | 271° |
| 2026-05-05 14:52 | 37.36928 | 126.89610 | 12480 ft | 339 kts | 271° |
| 2026-05-05 14:53 | 37.37009 | 126.86661 | 12104 ft | 336 kts | 271° |
| 2026-05-05 14:53 | 37.37094 | 126.83749 | 11729 ft | 334 kts | 271° |
| 2026-05-05 14:53 | 37.37182 | 126.80844 | 11354 ft | 331 kts | 271° |
| 2026-05-05 14:53 | 37.37270 | 126.77952 | 10976 ft | 328 kts | 271° |
| 2026-05-05 14:54 | 37.37359 | 126.75122 | 10601 ft | 320 kts | 271° |
| 2026-05-05 14:54 | 37.37447 | 126.72362 | 10224 ft | 312 kts | 271° |
| 2026-05-05 14:54 | 37.37538 | 126.69678 | 9852 ft | 303 kts | 271° |
| 2026-05-05 14:54 | 37.37628 | 126.67061 | 9477 ft | 296 kts | 271° |
| 2026-05-05 14:55 | 37.37716 | 126.64501 | 9117 ft | 288 kts | 271° |
| 2026-05-05 14:55 | 37.37804 | 126.62053 | 9051 ft | 276 kts | 271° |
| 2026-05-05 14:55 | 37.37889 | 126.59648 | 8957 ft | 275 kts | 271° |
| 2026-05-05 14:55 | 37.37984 | 126.57241 | 8586 ft | 276 kts | 274° |
| 2026-05-05 14:56 | 37.38296 | 126.54868 | 8295 ft | 275 kts | 280° |
| 2026-05-05 14:56 | 37.38733 | 126.52557 | 7995 ft | 273 kts | 282° |
| 2026-05-05 14:56 | 37.39204 | 126.50233 | 7707 ft | 270 kts | 282° |
| 2026-05-05 14:56 | 37.39670 | 126.47943 | 7370 ft | 269 kts | 282° |
| 2026-05-05 14:57 | 37.40133 | 126.45698 | 7041 ft | 269 kts | 283° |
| 2026-05-05 14:57 | 37.40915 | 126.43557 | 6720 ft | 270 kts | 298° |
| 2026-05-05 14:57 | 37.41937 | 126.41587 | 6523 ft | 265 kts | 300° |
| 2026-05-05 14:57 | 37.42958 | 126.39714 | 6403 ft | 256 kts | 301° |
| 2026-05-05 14:58 | 37.43975 | 126.37871 | 6076 ft | 257 kts | 303° |
| 2026-05-05 14:58 | 37.45123 | 126.36138 | 5748 ft | 258 kts | 307° |
| 2026-05-05 14:58 | 37.46312 | 126.34454 | 5470 ft | 256 kts | 308° |
| 2026-05-05 14:58 | 37.47468 | 126.32866 | 5223 ft | 253 kts | 309° |
| 2026-05-05 14:59 | 37.48649 | 126.31247 | 4891 ft | 250 kts | 309° |
| 2026-05-05 14:59 | 37.49823 | 126.29631 | 4515 ft | 249 kts | 309° |
| 2026-05-05 14:59 | 37.50981 | 126.28032 | 4139 ft | 246 kts | 308° |
| 2026-05-05 14:59 | 37.52125 | 126.26450 | 3763 ft | 243 kts | 308° |
| 2026-05-05 15:00 | 37.53257 | 126.24884 | 3385 ft | 240 kts | 308° |
| 2026-05-05 15:00 | 37.53998 | 126.23859 | 3148 ft | 237 kts | 308° |
| 2026-05-05 15:00 | 37.55683 | 126.22222 | 3006 ft | 230 kts | 338° |
| 2026-05-05 15:00 | 37.57268 | 126.22144 | 2973 ft | 233 kts | 9° |
| 2026-05-05 15:01 | 37.58704 | 126.23022 | 2991 ft | 235 kts | 33° |
| 2026-05-05 15:01 | 37.59853 | 126.24494 | 3012 ft | 234 kts | 49° |
| 2026-05-05 15:01 | 37.60766 | 126.26146 | 3026 ft | 227 kts | 56° |
| 2026-05-05 15:01 | 37.61620 | 126.27815 | 3014 ft | 224 kts | 62° |
| 2026-05-05 15:02 | 37.62018 | 126.29653 | 2967 ft | 217 kts | 93° |
| 2026-05-05 15:02 | 37.61610 | 126.31439 | 2994 ft | 211 kts | 118° |
| 2026-05-05 15:02 | 37.60771 | 126.32925 | 2984 ft | 206 kts | 134° |
| 2026-05-05 15:02 | 37.59692 | 126.34081 | 2752 ft | 198 kts | 145° |
| 2026-05-05 15:03 | 37.58597 | 126.34993 | 2506 ft | 180 kts | 150° |
| 2026-05-05 15:03 | 37.57579 | 126.35825 | 2234 ft | 172 kts | 149° |
| 2026-05-05 15:03 | 37.56584 | 126.36685 | 2003 ft | 175 kts | 148° |
| 2026-05-05 15:03 | 37.55597 | 126.37563 | 1783 ft | 167 kts | 148° |
| 2026-05-05 15:04 | 37.54683 | 126.38380 | 1559 ft | 158 kts | 147° |
| 2026-05-05 15:04 | 37.53799 | 126.39172 | 1338 ft | 155 kts | 147° |
| 2026-05-05 15:04 | 37.52919 | 126.39960 | 1136 ft | 155 kts | 146° |
| 2026-05-05 15:04 | 37.52039 | 126.40748 | 930 ft | 154 kts | 145° |
| 2026-05-05 15:05 | 37.50293 | 126.42311 | 524 ft | 153 kts | 144° |
| 2026-05-05 15:05 | 37.49424 | 126.43088 | 319 ft | 153 kts | 144° |
| 2026-05-05 15:05 | 37.48558 | 126.43863 | 118 ft | 152 kts | 144° |
| 2026-05-05 15:06 | 37.47690 | 126.44639 | 37 ft | 144 kts | 144° |
| 2026-05-05 15:06 | 37.47031 | 126.45228 | 37 ft | 92 kts | 144° |
| 2026-05-05 15:06 | 37.46639 | 126.45579 | 37 ft | 53 kts | 144° |
| 2026-05-05 15:06 | 37.46419 | 126.45809 | 37 ft | 29 kts | 127° |
| 2026-05-05 15:07 | 37.46329 | 126.45999 | 37 ft | 11 kts | 114° |
| 2026-05-05 15:07 | 37.46308 | 126.46077 | 37 ft | 9 kts | 86° |
| 2026-05-05 15:07 | 37.46351 | 126.46126 | 37 ft | 9 kts | 358° |
| 2026-05-05 15:07 | 37.46417 | 126.46087 | 37 ft | 15 kts | 324° |
| 2026-05-05 15:08 | 37.46498 | 126.46014 | 37 ft | 14 kts | 324° |
| 2026-05-05 15:08 | 37.46572 | 126.45947 | 37 ft | 13 kts | 324° |
| 2026-05-05 15:08 | 37.46644 | 126.45883 | 37 ft | 12 kts | 324° |
| 2026-05-05 15:08 | 37.46713 | 126.45821 | 37 ft | 12 kts | 324° |
| 2026-05-05 15:09 | 37.46780 | 126.45762 | 37 ft | 11 kts | 324° |
| 2026-05-05 15:09 | 37.46844 | 126.45705 | 37 ft | 11 kts | 324° |
| 2026-05-05 15:09 | 37.46905 | 126.45650 | 37 ft | 11 kts | 324° |
| 2026-05-05 15:09 | 37.46963 | 126.45598 | 37 ft | 10 kts | 324° |
| 2026-05-05 15:10 | 37.47019 | 126.45548 | 37 ft | 10 kts | 324° |
| 2026-05-05 15:10 | 37.47076 | 126.45511 | 37 ft | 9 kts | 19° |
| 2026-05-05 15:10 | 37.47119 | 126.45569 | 37 ft | 9 kts | 53° |
| 2026-05-05 15:10 | 37.47155 | 126.45633 | 37 ft | 10 kts | 53° |
| 2026-05-05 15:11 | 37.47205 | 126.45720 | 37 ft | 15 kts | 54° |
| 2026-05-05 15:11 | 37.47261 | 126.45820 | 37 ft | 10 kts | 54° |
| 2026-05-05 15:11 | 37.47254 | 126.45888 | 37 ft | 9 kts | 142° |
| 2026-05-05 15:11 | 37.47211 | 126.45927 | 37 ft | 5 kts | 144° |
| 2026-05-05 15:12 | 37.47206 | 126.45931 | 37 ft | 0 kts | 144° |